F/V Renaissance II — FMEW — position and weather

sailwx.info

Track history (hours):
 
Tides and Currents Weather Stations Pressure Air Temp Water Temp Dewpoint Dewpoint Depression Visibility Wind Speed Wind Dir Waves Ship Positions

F/V Renaissance II

Last reported at 2015-Jan-30 05:34 UTC. Time now 2015-Jan-30 06:28 UTC.
Position N 46°30' W 001°47'.

Length 18 m.

Type: Fishing. MMSI: 228216600.

Date/timePositionNaut miles runAvg speedWind from/ knotsBaromVisibWave heightAir tempDewpointWater temp
2015-Jan-30 05:34N 46°30' W 001°47'0 0.0
2015-Jan-30 04:34N 46°30' W 001°47'0 0.0
2015-Jan-30 03:33N 46°30' W 001°47'0 0.0
2015-Jan-30 02:34N 46°30' W 001°47'0 0.0
2015-Jan-30 01:34N 46°30' W 001°47'0 0.0
2015-Jan-30 00:34N 46°30' W 001°47'0 0.0
2015-Jan-29 23:34N 46°30' W 001°47'0 0.0
2015-Jan-29 22:33N 46°30' W 001°47'0 0.0
2015-Jan-29 21:33N 46°30' W 001°47'0 0.0
2015-Jan-29 20:34N 46°30' W 001°47'0 0.0
2015-Jan-29 19:34N 46°30' W 001°47'0 0.0
2015-Jan-29 18:34N 46°30' W 001°47'0 0.0
2015-Jan-29 17:34N 46°30' W 001°47'0 0.0
2015-Jan-29 16:33N 46°30' W 001°47'0 0.0
2015-Jan-29 15:34N 46°30' W 001°47'0 0.0
2015-Jan-29 14:33N 46°30' W 001°47'0 0.0
2015-Jan-29 13:33N 46°30' W 001°47'0 0.0
2015-Jan-29 12:33N 46°30' W 001°47'0 0.0
2015-Jan-29 11:33N 46°30' W 001°47'0 0.0
2015-Jan-29 10:34N 46°30' W 001°47'0 0.0
2015-Jan-29 09:33N 46°30' W 001°47'0 0.0
2015-Jan-29 07:34N 46°30' W 001°47'0 0.0
2015-Jan-29 06:34N 46°30' W 001°47'0 0.0
2015-Jan-29 05:33N 46°30' W 001°47'0 0.0
2015-Jan-29 04:34N 46°30' W 001°47'0 0.0
2015-Jan-29 03:33N 46°30' W 001°47'0 0.0
2015-Jan-29 02:34N 46°30' W 001°47'0 0.0
2015-Jan-29 01:33N 46°30' W 001°47'0 0.0
2015-Jan-29 00:33N 46°30' W 001°47'0 0.0
2015-Jan-28 23:34N 46°30' W 001°47'0 0.0
2015-Jan-28 22:34N 46°30' W 001°47'0 0.1
2015-Jan-28 21:33N 46°30' W 001°48'3 2.7
2015-Jan-28 20:34N 46°28' W 001°50'9 9.3
2015-Jan-28 19:33N 46°25' W 002°03'3 0.1
2015-Jan-27 23:26N 46°23' W 002°06'4 4.6
2015-Jan-27 22:33N 46°24' W 002°01'1 1.4
2015-Jan-27 21:33N 46°24' W 001°59'6 6.3
2015-Jan-27 20:34N 46°27' W 001°51'4 4.1
2015-Jan-27 19:33N 46°30' W 001°47'0 0.2
2015-Jan-27 18:34N 46°30' W 001°47'8 8.0
2015-Jan-27 17:33N 46°27' W 001°58'9 8.9
2015-Jan-27 16:33N 46°26' W 002°11'7 1.7
2015-Jan-27 12:33N 46°29' W 002°20'2 1.6
2015-Jan-27 11:33N 46°29' W 002°18'1 0.8
2015-Jan-27 10:33N 46°30' W 002°19'2 0.7
2015-Jan-27 07:33N 46°30' W 002°16'9 9.4
2015-Jan-27 06:33N 46°29' W 002°02'9 9.3
2015-Jan-27 05:34N 46°29' W 001°49'2 1.8
2015-Jan-27 04:34N 46°30' W 001°47'0 0.0
2015-Jan-27 03:33N 46°30' W 001°47'0 0.0
2015-Jan-27 02:34N 46°30' W 001°47'0 0.0
2015-Jan-27 01:33N 46°30' W 001°47'0 0.0
2015-Jan-27 00:33N 46°30' W 001°47'0 0.0
2015-Jan-26 23:33N 46°30' W 001°47'0 0.0
2015-Jan-26 22:33N 46°30' W 001°47'0 0.0
2015-Jan-26 21:33N 46°30' W 001°47'0 0.1
2015-Jan-26 20:33N 46°30' W 001°47'5 4.6
2015-Jan-26 19:33N 46°29' W 001°54'1010.0
2015-Jan-26 18:34N 46°31' W 002°08'9 3.7
2015-Jan-26 16:04N 46°33' W 002°21'2 0.9
2015-Jan-26 13:33N 46°33' W 002°18'7 1.1
2015-Jan-26 07:09N 46°34' W 002°08'5 9.1
2015-Jan-26 06:34N 46°32' W 002°00'9 9.0
2015-Jan-26 05:33N 46°28' W 001°48'2 1.6
2015-Jan-26 04:33N 46°30' W 001°47'0 0.0
2015-Jan-26 03:34N 46°30' W 001°47'0 0.0
2015-Jan-26 02:34N 46°30' W 001°47'0 0.0
2015-Jan-26 01:34N 46°30' W 001°47'0 0.0
2015-Jan-26 00:33N 46°30' W 001°47'0 0.0
2015-Jan-25 23:34N 46°30' W 001°47'0 0.0
2015-Jan-25 22:33N 46°30' W 001°47'0 0.0
2015-Jan-25 21:33N 46°30' W 001°47'0 0.0
2015-Jan-25 20:33N 46°30' W 001°47'0 0.0
2015-Jan-25 19:33N 46°30' W 001°47'5 4.8
2015-Jan-25 18:33N 46°30' W 001°54'10 9.6
2015-Jan-25 17:33N 46°34' W 002°07'12 2.5
2015-Jan-25 12:32N 46°33' W 002°25'6 1.2
2015-Jan-25 07:33N 46°34' W 002°17'9 8.9
2015-Jan-25 06:33N 46°32' W 002°04'9 9.0
2015-Jan-25 05:33N 46°29' W 001°52'3 3.3
2015-Jan-25 04:33N 46°30' W 001°47'0 0.0
2015-Jan-25 03:33N 46°30' W 001°47'0 0.0
2015-Jan-25 02:34N 46°30' W 001°47'0 0.0
2015-Jan-25 01:33N 46°30' W 001°47'0 0.0
2015-Jan-25 00:34N 46°30' W 001°47'0 0.0
2015-Jan-24 23:33N 46°30' W 001°47'0 0.0
2015-Jan-24 22:33N 46°30' W 001°47'0 0.0
2015-Jan-24 21:33N 46°30' W 001°47'0 0.0
2015-Jan-24 20:33N 46°30' W 001°47'0 0.0
2015-Jan-24 19:33N 46°30' W 001°47'0 0.0
2015-Jan-24 18:33N 46°30' W 001°47'0 0.0
2015-Jan-24 17:34N 46°30' W 001°47'8 7.6
2015-Jan-24 16:33N 46°25' W 001°56'11 0.5
2015-Jan-23 20:32N 46°19' W 002°08'9 9.6
2015-Jan-23 19:34N 46°24' W 001°57'8 8.4
2015-Jan-23 18:33N 46°29' W 001°48'0 0.4
2015-Jan-23 17:34N 46°30' W 001°47'0 0.0
2015-Jan-23 16:33N 46°30' W 001°47'0 0.0
2015-Jan-23 15:34N 46°30' W 001°47'0 0.0
2015-Jan-23 14:34N 46°30' W 001°47'0 0.0
2015-Jan-23 13:33N 46°30' W 001°47'0 0.0
2015-Jan-23 12:33N 46°30' W 001°47'0 0.0
2015-Jan-23 11:33N 46°30' W 001°47'0 0.0
2015-Jan-23 10:33N 46°30' W 001°47'0 0.0
2015-Jan-23 09:34N 46°30' W 001°47'0 0.0
2015-Jan-23 08:33N 46°30' W 001°47'0 0.0
2015-Jan-23 07:33N 46°30' W 001°47'0 0.1
2015-Jan-23 06:34N 46°30' W 001°48'0 0.0
2015-Jan-23 05:34N 46°30' W 001°48'0 0.0
2015-Jan-23 04:34N 46°30' W 001°48'0 0.0
2015-Jan-23 03:33N 46°30' W 001°48'0 0.3
2015-Jan-23 02:33N 46°30' W 001°47'4 4.5
2015-Jan-23 01:33N 46°26' W 001°46'9 9.1
2015-Jan-23 00:34N 46°17' W 001°44'19 1.0
2015-Jan-22 06:22N 46°20' W 002°10'6 7.7
2015-Jan-22 05:33N 46°23' W 002°02'7 7.3
2015-Jan-22 04:33N 46°27' W 001°53'5 4.9
2015-Jan-22 03:33N 46°30' W 001°48'0 0.0
2015-Jan-22 02:33N 46°30' W 001°48'0 0.0
2015-Jan-22 01:33N 46°30' W 001°48'0 0.0
2015-Jan-22 00:33N 46°30' W 001°48'0 0.0
2015-Jan-21 23:33N 46°30' W 001°48'0 0.0
2015-Jan-21 22:50N 46°30' W 001°48'0 0.0
2015-Jan-21 22:46N 46°30' W 001°48'0 0.0
2015-Jan-21 22:33N 46°30' W 001°48'0 0.0
2015-Jan-21 21:33N 46°30' W 001°48'0 0.0
2015-Jan-21 20:33N 46°30' W 001°48'0 0.0
2015-Jan-21 19:33N 46°30' W 001°48'6 5.9
2015-Jan-21 18:33N 46°26' W 001°54'5 5.1
2015-Jan-21 17:33N 46°24' W 002°01'1 0.9
2015-Jan-21 16:33N 46°25' W 002°01'1 1.3
2015-Jan-21 15:33N 46°24' W 002°03'10 3.3
2015-Jan-21 12:32N 46°27' W 002°16'2 0.6
2015-Jan-21 09:27N 46°26' W 002°18'6 2.7
2015-Jan-21 07:05N 46°26' W 002°09'5 9.0
2015-Jan-21 06:33N 46°27' W 002°02'9 9.0
2015-Jan-21 05:33N 46°28' W 001°50'2 2.2
2015-Jan-21 04:33N 46°30' W 001°48'0 0.0
2015-Jan-21 03:33N 46°30' W 001°47'0 0.0
2015-Jan-21 02:33N 46°30' W 001°47'0 0.0
2015-Jan-21 01:33N 46°30' W 001°47'0 0.0
2015-Jan-21 00:33N 46°30' W 001°48'0 0.0
2015-Jan-20 23:33N 46°30' W 001°48'0 0.0
2015-Jan-20 22:33N 46°30' W 001°48'0 0.0
2015-Jan-20 21:33N 46°30' W 001°48'0 0.0
2015-Jan-20 20:33N 46°30' W 001°48'0 0.0
2015-Jan-20 19:33N 46°30' W 001°47'0 0.0
2015-Jan-20 18:33N 46°30' W 001°47'0 0.2
2015-Jan-20 17:33N 46°30' W 001°47'3 2.5
2015-Jan-20 16:33N 46°28' W 001°50'5 4.6
2015-Jan-20 15:33N 46°27' W 001°56'5 4.6
2015-Jan-20 14:26N 46°26' W 002°04'9 2.6
2015-Jan-20 11:06N 46°24' W 002°16'3 0.9
2015-Jan-20 08:09N 46°22' W 002°13'1 1.7
2015-Jan-20 07:17N 46°23' W 002°14'7 9.4
2015-Jan-20 06:33N 46°25' W 002°04'  
Track history (hours):
 
Tides and Currents Weather Stations Pressure Air Temp Water Temp Dewpoint Dewpoint Depression Visibility Wind Speed Wind Dir Waves Ship Positions

F/V Renaissance II

Last reported at 2015-Jan-30 05:34 UTC. Time now 2015-Jan-30 06:28 UTC.
Position N 46°30' W 001°47'.

Length 18 m.

Type: Fishing. MMSI: 228216600.

Date/timePositionNaut miles runAvg speedWind from/ knotsBaromVisibWave heightAir tempDewpointWater temp
2015-Jan-30 05:34N 46°30' W 001°47'0 0.0
2015-Jan-30 04:34N 46°30' W 001°47'0 0.0
2015-Jan-30 03:33N 46°30' W 001°47'0 0.0
2015-Jan-30 02:34N 46°30' W 001°47'0 0.0
2015-Jan-30 01:34N 46°30' W 001°47'0 0.0
2015-Jan-30 00:34N 46°30' W 001°47'0 0.0
2015-Jan-29 23:34N 46°30' W 001°47'0 0.0
2015-Jan-29 22:33N 46°30' W 001°47'0 0.0
2015-Jan-29 21:33N 46°30' W 001°47'0 0.0
2015-Jan-29 20:34N 46°30' W 001°47'0 0.0
2015-Jan-29 19:34N 46°30' W 001°47'0 0.0
2015-Jan-29 18:34N 46°30' W 001°47'0 0.0
2015-Jan-29 17:34N 46°30' W 001°47'0 0.0
2015-Jan-29 16:33N 46°30' W 001°47'0 0.0
2015-Jan-29 15:34N 46°30' W 001°47'0 0.0
2015-Jan-29 14:33N 46°30' W 001°47'0 0.0
2015-Jan-29 13:33N 46°30' W 001°47'0 0.0
2015-Jan-29 12:33N 46°30' W 001°47'0 0.0
2015-Jan-29 11:33N 46°30' W 001°47'0 0.0
2015-Jan-29 10:34N 46°30' W 001°47'0 0.0
2015-Jan-29 09:33N 46°30' W 001°47'0 0.0
2015-Jan-29 07:34N 46°30' W 001°47'0 0.0
2015-Jan-29 06:34N 46°30' W 001°47'0 0.0
2015-Jan-29 05:33N 46°30' W 001°47'0 0.0
2015-Jan-29 04:34N 46°30' W 001°47'0 0.0
2015-Jan-29 03:33N 46°30' W 001°47'0 0.0
2015-Jan-29 02:34N 46°30' W 001°47'0 0.0
2015-Jan-29 01:33N 46°30' W 001°47'0 0.0
2015-Jan-29 00:33N 46°30' W 001°47'0 0.0
2015-Jan-28 23:34N 46°30' W 001°47'0 0.0
2015-Jan-28 22:34N 46°30' W 001°47'0 0.1
2015-Jan-28 21:33N 46°30' W 001°48'3 2.7
2015-Jan-28 20:34N 46°28' W 001°50'9 9.3
2015-Jan-28 19:33N 46°25' W 002°03'3 0.1
2015-Jan-27 23:26N 46°23' W 002°06'4 4.6
2015-Jan-27 22:33N 46°24' W 002°01'1 1.4
2015-Jan-27 21:33N 46°24' W 001°59'6 6.3
2015-Jan-27 20:34N 46°27' W 001°51'4 4.1
2015-Jan-27 19:33N 46°30' W 001°47'0 0.2
2015-Jan-27 18:34N 46°30' W 001°47'8 8.0
2015-Jan-27 17:33N 46°27' W 001°58'9 8.9
2015-Jan-27 16:33N 46°26' W 002°11'7 1.7
2015-Jan-27 12:33N 46°29' W 002°20'2 1.6
2015-Jan-27 11:33N 46°29' W 002°18'1 0.8
2015-Jan-27 10:33N 46°30' W 002°19'2 0.7
2015-Jan-27 07:33N 46°30' W 002°16'9 9.4
2015-Jan-27 06:33N 46°29' W 002°02'9 9.3
2015-Jan-27 05:34N 46°29' W 001°49'2 1.8
2015-Jan-27 04:34N 46°30' W 001°47'0 0.0
2015-Jan-27 03:33N 46°30' W 001°47'0 0.0
2015-Jan-27 02:34N 46°30' W 001°47'0 0.0
2015-Jan-27 01:33N 46°30' W 001°47'0 0.0
2015-Jan-27 00:33N 46°30' W 001°47'0 0.0
2015-Jan-26 23:33N 46°30' W 001°47'0 0.0
2015-Jan-26 22:33N 46°30' W 001°47'0 0.0
2015-Jan-26 21:33N 46°30' W 001°47'0 0.1
2015-Jan-26 20:33N 46°30' W 001°47'5 4.6
2015-Jan-26 19:33N 46°29' W 001°54'1010.0
2015-Jan-26 18:34N 46°31' W 002°08'9 3.7
2015-Jan-26 16:04N 46°33' W 002°21'2 0.9
2015-Jan-26 13:33N 46°33' W 002°18'7 1.1
2015-Jan-26 07:09N 46°34' W 002°08'5 9.1
2015-Jan-26 06:34N 46°32' W 002°00'9 9.0
2015-Jan-26 05:33N 46°28' W 001°48'2 1.6
2015-Jan-26 04:33N 46°30' W 001°47'0 0.0
2015-Jan-26 03:34N 46°30' W 001°47'0 0.0
2015-Jan-26 02:34N 46°30' W 001°47'0 0.0
2015-Jan-26 01:34N 46°30' W 001°47'0 0.0
2015-Jan-26 00:33N 46°30' W 001°47'0 0.0
2015-Jan-25 23:34N 46°30' W 001°47'0 0.0
2015-Jan-25 22:33N 46°30' W 001°47'0 0.0
2015-Jan-25 21:33N 46°30' W 001°47'0 0.0
2015-Jan-25 20:33N 46°30' W 001°47'0 0.0
2015-Jan-25 19:33N 46°30' W 001°47'5 4.8
2015-Jan-25 18:33N 46°30' W 001°54'10 9.6
2015-Jan-25 17:33N 46°34' W 002°07'12 2.5
2015-Jan-25 12:32N 46°33' W 002°25'6 1.2
2015-Jan-25 07:33N 46°34' W 002°17'9 8.9
2015-Jan-25 06:33N 46°32' W 002°04'9 9.0
2015-Jan-25 05:33N 46°29' W 001°52'3 3.3
2015-Jan-25 04:33N 46°30' W 001°47'0 0.0
2015-Jan-25 03:33N 46°30' W 001°47'0 0.0
2015-Jan-25 02:34N 46°30' W 001°47'0 0.0
2015-Jan-25 01:33N 46°30' W 001°47'0 0.0
2015-Jan-25 00:34N 46°30' W 001°47'0 0.0
2015-Jan-24 23:33N 46°30' W 001°47'0 0.0
2015-Jan-24 22:33N 46°30' W 001°47'0 0.0
2015-Jan-24 21:33N 46°30' W 001°47'0 0.0
2015-Jan-24 20:33N 46°30' W 001°47'0 0.0
2015-Jan-24 19:33N 46°30' W 001°47'0 0.0
2015-Jan-24 18:33N 46°30' W 001°47'0 0.0
2015-Jan-24 17:34N 46°30' W 001°47'8 7.6
2015-Jan-24 16:33N 46°25' W 001°56'11 0.5
2015-Jan-23 20:32N 46°19' W 002°08'9 9.6
2015-Jan-23 19:34N 46°24' W 001°57'8 8.4
2015-Jan-23 18:33N 46°29' W 001°48'0 0.4
2015-Jan-23 17:34N 46°30' W 001°47'0 0.0
2015-Jan-23 16:33N 46°30' W 001°47'0 0.0
2015-Jan-23 15:34N 46°30' W 001°47'0 0.0
2015-Jan-23 14:34N 46°30' W 001°47'0 0.0
2015-Jan-23 13:33N 46°30' W 001°47'0 0.0
2015-Jan-23 12:33N 46°30' W 001°47'0 0.0
2015-Jan-23 11:33N 46°30' W 001°47'0 0.0
2015-Jan-23 10:33N 46°30' W 001°47'0 0.0
2015-Jan-23 09:34N 46°30' W 001°47'0 0.0
2015-Jan-23 08:33N 46°30' W 001°47'0 0.0
2015-Jan-23 07:33N 46°30' W 001°47'0 0.1
2015-Jan-23 06:34N 46°30' W 001°48'0 0.0
2015-Jan-23 05:34N 46°30' W 001°48'0 0.0
2015-Jan-23 04:34N 46°30' W 001°48'0 0.0
2015-Jan-23 03:33N 46°30' W 001°48'0 0.3
2015-Jan-23 02:33N 46°30' W 001°47'4 4.5
2015-Jan-23 01:33N 46°26' W 001°46'9 9.1
2015-Jan-23 00:34N 46°17' W 001°44'19 1.0
2015-Jan-22 06:22N 46°20' W 002°10'6 7.7
2015-Jan-22 05:33N 46°23' W 002°02'7 7.3
2015-Jan-22 04:33N 46°27' W 001°53'5 4.9
2015-Jan-22 03:33N 46°30' W 001°48'0 0.0
2015-Jan-22 02:33N 46°30' W 001°48'0 0.0
2015-Jan-22 01:33N 46°30' W 001°48'0 0.0
2015-Jan-22 00:33N 46°30' W 001°48'0 0.0
2015-Jan-21 23:33N 46°30' W 001°48'0 0.0
2015-Jan-21 22:50N 46°30' W 001°48'0 0.0
2015-Jan-21 22:46N 46°30' W 001°48'0 0.0
2015-Jan-21 22:33N 46°30' W 001°48'0 0.0
2015-Jan-21 21:33N 46°30' W 001°48'0 0.0
2015-Jan-21 20:33N 46°30' W 001°48'0 0.0
2015-Jan-21 19:33N 46°30' W 001°48'6 5.9
2015-Jan-21 18:33N 46°26' W 001°54'5 5.1
2015-Jan-21 17:33N 46°24' W 002°01'1 0.9
2015-Jan-21 16:33N 46°25' W 002°01'1 1.3
2015-Jan-21 15:33N 46°24' W 002°03'10 3.3
2015-Jan-21 12:32N 46°27' W 002°16'2 0.6
2015-Jan-21 09:27N 46°26' W 002°18'6 2.7
2015-Jan-21 07:05N 46°26' W 002°09'5 9.0
2015-Jan-21 06:33N 46°27' W 002°02'9 9.0
2015-Jan-21 05:33N 46°28' W 001°50'2 2.2
2015-Jan-21 04:33N 46°30' W 001°48'0 0.0
2015-Jan-21 03:33N 46°30' W 001°47'0 0.0
2015-Jan-21 02:33N 46°30' W 001°47'0 0.0
2015-Jan-21 01:33N 46°30' W 001°47'0 0.0
2015-Jan-21 00:33N 46°30' W 001°48'0 0.0
2015-Jan-20 23:33N 46°30' W 001°48'0 0.0
2015-Jan-20 22:33N 46°30' W 001°48'0 0.0
2015-Jan-20 21:33N 46°30' W 001°48'0 0.0
2015-Jan-20 20:33N 46°30' W 001°48'0 0.0
2015-Jan-20 19:33N 46°30' W 001°47'0 0.0
2015-Jan-20 18:33N 46°30' W 001°47'0 0.2
2015-Jan-20 17:33N 46°30' W 001°47'3 2.5
2015-Jan-20 16:33N 46°28' W 001°50'5 4.6
2015-Jan-20 15:33N 46°27' W 001°56'5 4.6
2015-Jan-20 14:26N 46°26' W 002°04'9 2.6
2015-Jan-20 11:06N 46°24' W 002°16'3 0.9
2015-Jan-20 08:09N 46°22' W 002°13'1 1.7
2015-Jan-20 07:17N 46°23' W 002°14'7 9.4
2015-Jan-20 06:33N 46°25' W 002°04'  

Dump ship's entire track history